Cheyenne Regional Jerry Olson Field Cheyenne US
ICAO: KCYS
IATA: CYS
Category: Medium
Scheduled Services: Yes

Elevation: 6159 ft
TransAlt. 18000 ft.

Airport Communications:
APP/DEP:124.55
ATIS:134.425
CTAF:118.7
GND:121.9
ARNG OPS:126.2
ANG OPS/COMD POST:22.552
CASPER RDO:122.3
TWR:118.7
UNICOM:122.95

KCYS Zoom In..

If Map Doesn't Load, Click Here

Runways:

(A) RW 09 length 9270 ft width 150 ft
---- / hdg 85

(B) RW 13 length 6690 ft width 150 ft
---- / hdg 125

(C) RW 27 length 9270 ft width 150 ft
ILS 110.10 / hdg 265

(D) RW 31 length 6690 ft width 150 ft
---- / hdg 305

Location; KCYS
Day. 21 / Time. 14.53 Zulu
* Altimeter: 30.36
* Temperature: 11° c. 51.8°f.
* Wind from: 190° Speed 14 kn.
Dewpoint: 05° c.
Visibility: 10 Statute Miles.
Clouds: Clear (automated report).

KCYS 211453Z 19014KT 10SM CLR 11/05 A3036 RMK AO2 SLP237 T01060050 51012


Wind From 190°
Speed 14 kn.

 
 
jpsmedia.com for Web Design worldairports.se 2018   terms of use